sensor_id;sensor_type;location;lat;lon;timestamp;pressure;altitude;pressure_sealevel;temperature;humidity
36328;BME280;22354;50.012;8.264;2022-10-17T00:00:28;100913.38;;;13.53;100.00
36328;BME280;22354;50.012;8.264;2022-10-17T00:02:54;100916.22;;;13.52;100.00
36328;BME280;22354;50.012;8.264;2022-10-17T00:05:20;100902.47;;;13.55;100.00
36328;BME280;22354;50.012;8.264;2022-10-17T00:07:45;100914.06;;;13.55;100.00
36328;BME280;22354;50.012;8.264;2022-10-17T00:10:11;100919.09;;;13.50;100.00
36328;BME280;22354;50.012;8.264;2022-10-17T00:12:36;100922.03;;;13.39;100.00
36328;BME280;22354;50.012;8.264;2022-10-17T00:15:03;100915.31;;;13.35;100.00
36328;BME280;22354;50.012;8.264;2022-10-17T00:17:29;100921.47;;;13.27;100.00
36328;BME280;22354;50.012;8.264;2022-10-17T00:19:57;100932.56;;;13.24;100.00
36328;BME280;22354;50.012;8.264;2022-10-17T00:22:22;100932.56;;;13.24;100.00
36328;BME280;22354;50.012;8.264;2022-10-17T00:24:48;100923.63;;;13.24;100.00
36328;BME280;22354;50.012;8.264;2022-10-17T00:27:13;100934.41;;;13.24;100.00
36328;BME280;22354;50.012;8.264;2022-10-17T00:29:38;100936.41;;;13.22;100.00
36328;BME280;22354;50.012;8.264;2022-10-17T00:32:04;100927.00;;;13.26;100.00
36328;BME280;22354;50.012;8.264;2022-10-17T00:34:29;100940.41;;;13.18;100.00
36328;BME280;22354;50.012;8.264;2022-10-17T00:36:55;100938.72;;;13.17;100.00
36328;BME280;22354;50.012;8.264;2022-10-17T00:39:20;100939.56;;;13.17;100.00
36328;BME280;22354;50.012;8.264;2022-10-17T00:41:45;100949.75;;;13.14;100.00
36328;BME280;22354;50.012;8.264;2022-10-17T00:46:56;100954.25;;;13.05;100.00
36328;BME280;22354;50.012;8.264;2022-10-17T00:49:23;100952.88;;;13.19;100.00
36328;BME280;22354;50.012;8.264;2022-10-17T00:51:55;100954.56;;;13.20;100.00
36328;BME280;22354;50.012;8.264;2022-10-17T00:54:29;100956.53;;;13.18;100.00
36328;BME280;22354;50.012;8.264;2022-10-17T00:56:56;100945.50;;;13.21;100.00
36328;BME280;22354;50.012;8.264;2022-10-17T00:59:22;100946.22;;;13.13;100.00
36328;BME280;22354;50.012;8.264;2022-10-17T01:02:05;100947.50;;;13.19;100.00
36328;BME280;22354;50.012;8.264;2022-10-17T01:04:31;100954.84;;;13.17;100.00
36328;BME280;22354;50.012;8.264;2022-10-17T01:06:56;100950.72;;;13.22;100.00
36328;BME280;22354;50.012;8.264;2022-10-17T01:09:22;100941.78;;;13.22;100.00
36328;BME280;22354;50.012;8.264;2022-10-17T01:12:00;100939.25;;;13.20;100.00
36328;BME280;22354;50.012;8.264;2022-10-17T01:14:31;100944.09;;;13.17;100.00
36328;BME280;22354;50.012;8.264;2022-10-17T01:17:09;100939.00;;;13.14;100.00
36328;BME280;22354;50.012;8.264;2022-10-17T01:25:53;100952.03;;;13.18;100.00
36328;BME280;22354;50.012;8.264;2022-10-17T01:31:02;100948.47;;;13.18;100.00
36328;BME280;22354;50.012;8.264;2022-10-17T01:36:52;100947.41;;;13.11;100.00
36328;BME280;22354;50.012;8.264;2022-10-17T01:39:45;100949.75;;;13.14;100.00
36328;BME280;22354;50.012;8.264;2022-10-17T01:42:17;100944.81;;;13.19;100.00
36328;BME280;22354;50.012;8.264;2022-10-17T01:44:48;100949.88;;;13.04;100.00
36328;BME280;22354;50.012;8.264;2022-10-17T01:47:19;100948.31;;;13.02;100.00
36328;BME280;22354;50.012;8.264;2022-10-17T01:49:48;100956.84;;;13.15;100.00
36328;BME280;22354;50.012;8.264;2022-10-17T01:52:26;100955.59;;;13.27;100.00
36328;BME280;22354;50.012;8.264;2022-10-17T01:54:57;100946.34;;;13.21;100.00
36328;BME280;22354;50.012;8.264;2022-10-17T01:57:37;100943.03;;;13.10;100.00
36328;BME280;22354;50.012;8.264;2022-10-17T02:00:08;100954.94;;;13.07;100.00
36328;BME280;22354;50.012;8.264;2022-10-17T02:02:35;100954.03;;;12.98;100.00
36328;BME280;22354;50.012;8.264;2022-10-17T02:05:02;100948.31;;;13.02;100.00
36328;BME280;22354;50.012;8.264;2022-10-17T02:07:28;100951.91;;;13.02;100.00
36328;BME280;22354;50.012;8.264;2022-10-17T02:09:53;100946.28;;;12.95;100.00
36328;BME280;22354;50.012;8.264;2022-10-17T02:15:37;100941.59;;;12.97;100.00
36328;BME280;22354;50.012;8.264;2022-10-17T02:20:50;100940.25;;;13.02;100.00
36328;BME280;22354;50.012;8.264;2022-10-17T02:23:32;100941.91;;;12.94;100.00
36328;BME280;22354;50.012;8.264;2022-10-17T02:26:09;100941.66;;;12.88;100.00
36328;BME280;22354;50.012;8.264;2022-10-17T02:28:51;100936.41;;;12.78;100.00
36328;BME280;22354;50.012;8.264;2022-10-17T02:31:28;100947.22;;;12.86;100.00
36328;BME280;22354;50.012;8.264;2022-10-17T02:33:59;100941.66;;;12.88;100.00
36328;BME280;22354;50.012;8.264;2022-10-17T02:36:30;100942.22;;;12.91;100.00
36328;BME280;22354;50.012;8.264;2022-10-17T02:38:57;100940.53;;;12.90;100.00
36328;BME280;22354;50.012;8.264;2022-10-17T02:41:24;100940.75;;;12.97;100.00
36328;BME280;22354;50.012;8.264;2022-10-17T02:43:51;100936.44;;;12.86;100.00
36328;BME280;22354;50.012;8.264;2022-10-17T02:46:20;100949.44;;;12.91;100.00
36328;BME280;22354;50.012;8.264;2022-10-17T02:48:50;100948.28;;;12.93;100.00
36328;BME280;22354;50.012;8.264;2022-10-17T02:51:23;100949.88;;;13.04;100.00
36328;BME280;22354;50.012;8.264;2022-10-17T02:54:26;100949.66;;;12.97;100.00
36328;BME280;22354;50.012;8.264;2022-10-17T02:57:35;100955.66;;;12.91;100.00
36328;BME280;22354;50.012;8.264;2022-10-17T03:00:04;100945.00;;;12.82;100.00
36328;BME280;22354;50.012;8.264;2022-10-17T03:02:45;100960.22;;;12.91;100.00
36328;BME280;22354;50.012;8.264;2022-10-17T03:05:13;100955.13;;;12.88;100.00
36328;BME280;22354;50.012;8.264;2022-10-17T03:07:38;100959.28;;;12.82;100.00
36328;BME280;22354;50.012;8.264;2022-10-17T03:10:04;100958.19;;;12.93;100.00
36328;BME280;22354;50.012;8.264;2022-10-17T03:12:30;100955.66;;;12.91;100.00
36328;BME280;22354;50.012;8.264;2022-10-17T03:14:55;100961.72;;;12.93;100.00
36328;BME280;22354;50.012;8.264;2022-10-17T03:17:20;100965.03;;;12.87;100.00
36328;BME280;22354;50.012;8.264;2022-10-17T03:19:46;100970.72;;;12.84;100.00
36328;BME280;22354;50.012;8.264;2022-10-17T03:22:11;100973.94;;;12.88;100.00
36328;BME280;22354;50.012;8.264;2022-10-17T03:24:36;100980.81;;;12.64;100.00
36328;BME280;22354;50.012;8.264;2022-10-17T03:27:01;100984.03;;;12.68;100.00
36328;BME280;22354;50.012;8.264;2022-10-17T03:29:27;100988.16;;;12.62;100.00
36328;BME280;22354;50.012;8.264;2022-10-17T03:31:52;100985.63;;;12.61;100.00
36328;BME280;22354;50.012;8.264;2022-10-17T03:34:17;100998.47;;;12.67;100.00
36328;BME280;22354;50.012;8.264;2022-10-17T03:36:43;100998.06;;;12.62;100.00
36328;BME280;22354;50.012;8.264;2022-10-17T03:39:09;100996.53;;;12.59;100.00
36328;BME280;22354;50.012;8.264;2022-10-17T03:41:34;100996.94;;;12.64;100.00
36328;BME280;22354;50.012;8.264;2022-10-17T03:43:59;100994.69;;;12.60;100.00
36328;BME280;22354;50.012;8.264;2022-10-17T03:46:25;100991.31;;;12.58;100.00
36328;BME280;22354;50.012;8.264;2022-10-17T03:48:50;100994.69;;;12.60;100.00
36328;BME280;22354;50.012;8.264;2022-10-17T03:51:15;101003.91;;;12.57;100.00
36328;BME280;22354;50.012;8.264;2022-10-17T03:53:41;100996.84;;;12.56;100.00
36328;BME280;22354;50.012;8.264;2022-10-17T03:56:10;101002.22;;;12.56;100.00
36328;BME280;22354;50.012;8.264;2022-10-17T03:58:36;101004.91;;;12.56;100.00
36328;BME280;22354;50.012;8.264;2022-10-17T04:01:05;101005.75;;;12.57;100.00
36328;BME280;22354;50.012;8.264;2022-10-17T04:03:30;101011.13;;;12.57;100.00
36328;BME280;22354;50.012;8.264;2022-10-17T04:05:59;101009.44;;;12.56;100.00
36328;BME280;22354;50.012;8.264;2022-10-17T04:08:25;101009.44;;;12.56;100.00
36328;BME280;22354;50.012;8.264;2022-10-17T04:10:51;101016.81;;;12.54;100.00
36328;BME280;22354;50.012;8.264;2022-10-17T04:13:16;101013.13;;;12.55;100.00
36328;BME280;22354;50.012;8.264;2022-10-17T04:15:41;101011.13;;;12.57;100.00
36328;BME280;22354;50.012;8.264;2022-10-17T04:18:07;101018.81;;;12.52;100.00
36328;BME280;22354;50.012;8.264;2022-10-17T04:20:33;101012.59;;;12.51;100.00
36328;BME280;22354;50.012;8.264;2022-10-17T04:22:59;101014.28;;;12.52;100.00
36328;BME280;22354;50.012;8.264;2022-10-17T04:25:24;101019.72;;;12.43;100.00
36328;BME280;22354;50.012;8.264;2022-10-17T04:27:49;101014.34;;;12.43;100.00
36328;BME280;22354;50.012;8.264;2022-10-17T04:30:15;101007.97;;;12.44;100.00
36328;BME280;22354;50.012;8.264;2022-10-17T04:32:40;101008.06;;;12.52;100.00
36328;BME280;22354;50.012;8.264;2022-10-17T04:35:06;101015.97;;;12.53;100.00
36328;BME280;22354;50.012;8.264;2022-10-17T04:37:31;101020.09;;;12.48;100.00
36328;BME280;22354;50.012;8.264;2022-10-17T04:39:57;101016.34;;;12.40;100.00
36328;BME280;22354;50.012;8.264;2022-10-17T04:42:22;101022.09;;;12.46;100.00
36328;BME280;22354;50.012;8.264;2022-10-17T04:44:47;101020.78;;;12.50;100.00
36328;BME280;22354;50.012;8.264;2022-10-17T04:47:12;101032.16;;;12.44;100.00
36328;BME280;22354;50.012;8.264;2022-10-17T04:49:38;101030.16;;;12.46;100.00
36328;BME280;22354;50.012;8.264;2022-10-17T04:52:03;101030.16;;;12.46;100.00
36328;BME280;22354;50.012;8.264;2022-10-17T04:54:28;101036.13;;;12.39;100.00
36328;BME280;22354;50.012;8.264;2022-10-17T04:56:54;101038.41;;;12.34;100.00
36328;BME280;22354;50.012;8.264;2022-10-17T04:59:19;101036.41;;;12.36;100.00
36328;BME280;22354;50.012;8.264;2022-10-17T05:01:44;101029.75;;;12.40;100.00
36328;BME280;22354;50.012;8.264;2022-10-17T05:04:09;101030.19;;;12.36;100.00
36328;BME280;22354;50.012;8.264;2022-10-17T05:06:36;101030.34;;;12.34;100.00
36328;BME280;22354;50.012;8.264;2022-10-17T05:09:01;101018.91;;;12.32;100.00
36328;BME280;22354;50.012;8.264;2022-10-17T05:11:28;101024.13;;;12.34;100.00
36328;BME280;22354;50.012;8.264;2022-10-17T05:13:56;101020.03;;;12.39;100.00
36328;BME280;22354;50.012;8.264;2022-10-17T05:16:22;101016.63;;;12.37;100.00
36328;BME280;22354;50.012;8.264;2022-10-17T05:18:52;101014.66;;;12.39;100.00
36328;BME280;22354;50.012;8.264;2022-10-17T05:21:18;101011.97;;;12.39;100.00
36328;BME280;22354;50.012;8.264;2022-10-17T05:23:44;101019.16;;;12.39;100.00
36328;BME280;22354;50.012;8.264;2022-10-17T05:26:10;101020.72;;;12.42;100.00
36328;BME280;22354;50.012;8.264;2022-10-17T05:28:35;101022.94;;;12.46;100.00
36328;BME280;22354;50.012;8.264;2022-10-17T05:31:04;101025.41;;;12.39;100.00
36328;BME280;22354;50.012;8.264;2022-10-17T05:33:30;101021.09;;;12.47;100.00
36328;BME280;22354;50.012;8.264;2022-10-17T05:35:56;101023.69;;;12.38;100.00
36328;BME280;22354;50.012;8.264;2022-10-17T05:38:21;101026.78;;;12.44;100.00
36328;BME280;22354;50.012;8.264;2022-10-17T05:40:47;101029.63;;;12.42;100.00
36328;BME280;22354;50.012;8.264;2022-10-17T05:43:12;101026.09;;;12.42;100.00
36328;BME280;22354;50.012;8.264;2022-10-17T05:45:38;101024.78;;;12.46;100.00
36328;BME280;22354;50.012;8.264;2022-10-17T05:48:04;101023.03;;;12.54;100.00
36328;BME280;22354;50.012;8.264;2022-10-17T05:50:29;101030.31;;;12.44;100.00
36328;BME280;22354;50.012;8.264;2022-10-17T05:52:54;101027.09;;;12.40;100.00
36328;BME280;22354;50.012;8.264;2022-10-17T05:55:20;101032.84;;;12.46;100.00
36328;BME280;22354;50.012;8.264;2022-10-17T05:57:45;101031.53;;;12.50;100.00
36328;BME280;22354;50.012;8.264;2022-10-17T06:00:11;101029.31;;;12.45;100.00
36328;BME280;22354;50.012;8.264;2022-10-17T06:02:37;101025.47;;;12.48;100.00
36328;BME280;22354;50.012;8.264;2022-10-17T06:05:02;101021.25;;;12.45;100.00
36328;BME280;22354;50.012;8.264;2022-10-17T06:07:28;101027.88;;;12.51;100.00
36328;BME280;22354;50.012;8.264;2022-10-17T06:09:53;101034.63;;;12.55;100.00
36328;BME280;22354;50.012;8.264;2022-10-17T06:12:18;101046.06;;;12.57;100.00
36328;BME280;22354;50.012;8.264;2022-10-17T06:14:43;101044.06;;;12.59;100.00
36328;BME280;22354;50.012;8.264;2022-10-17T06:17:09;101044.84;;;12.69;100.00
36328;BME280;22354;50.012;8.264;2022-10-17T06:19:34;101055.13;;;12.74;100.00
36328;BME280;22354;50.012;8.264;2022-10-17T06:21:59;101054.28;;;12.73;100.00
36328;BME280;22354;50.012;8.264;2022-10-17T06:24:25;101059.97;;;12.70;100.00
36328;BME280;22354;50.012;8.264;2022-10-17T06:26:50;101062.94;;;12.77;100.00
36328;BME280;22354;50.012;8.264;2022-10-17T06:29:16;101069.00;;;12.79;100.00
36328;BME280;22354;50.012;8.264;2022-10-17T06:31:41;101052.84;;;12.79;100.00
36328;BME280;22354;50.012;8.264;2022-10-17T06:34:06;101061.47;;;12.82;100.00
36328;BME280;22354;50.012;8.264;2022-10-17T06:36:32;101056.44;;;12.87;100.00
36328;BME280;22354;50.012;8.264;2022-10-17T06:38:57;101060.59;;;12.99;100.00
36328;BME280;22354;50.012;8.264;2022-10-17T06:41:22;101064.53;;;12.87;100.00
36328;BME280;22354;50.012;8.264;2022-10-17T06:43:48;101070.31;;;12.92;100.00
36328;BME280;22354;50.012;8.264;2022-10-17T06:46:16;101074.84;;;12.92;100.00
36328;BME280;22354;50.012;8.264;2022-10-17T06:48:42;101073.47;;;13.06;100.00
36328;BME280;22354;50.012;8.264;2022-10-17T06:51:07;101080.91;;;12.94;100.00
36328;BME280;22354;50.012;8.264;2022-10-17T06:53:37;101073.69;;;12.94;100.00
36328;BME280;22354;50.012;8.264;2022-10-17T06:56:03;101081.28;;;12.99;100.00
36328;BME280;22354;50.012;8.264;2022-10-17T06:58:31;101078.75;;;12.97;100.00
36328;BME280;22354;50.012;8.264;2022-10-17T07:01:11;101078.22;;;12.94;100.00
36328;BME280;22354;50.012;8.264;2022-10-17T07:03:36;101093.13;;;13.06;100.00
36328;BME280;22354;50.012;8.264;2022-10-17T07:06:03;101086.44;;;13.10;100.00
36328;BME280;22354;50.012;8.264;2022-10-17T07:08:28;101089.75;;;13.04;100.00
36328;BME280;22354;50.012;8.264;2022-10-17T07:10:54;101095.97;;;13.05;100.00
36328;BME280;22354;50.012;8.264;2022-10-17T07:13:20;101122.03;;;13.04;100.00
36328;BME280;22354;50.012;8.264;2022-10-17T07:15:45;101114.88;;;13.13;100.00
36328;BME280;22354;50.012;8.264;2022-10-17T07:18:11;101127.63;;;13.11;100.00
36328;BME280;22354;50.012;8.264;2022-10-17T07:20:36;101118.97;;;13.17;100.00
36328;BME280;22354;50.012;8.264;2022-10-17T07:23:02;101135.19;;;13.25;100.00
36328;BME280;22354;50.012;8.264;2022-10-17T07:25:28;101132.91;;;13.30;100.00
36328;BME280;22354;50.012;8.264;2022-10-17T07:27:54;101127.34;;;13.49;100.00
36328;BME280;22354;50.012;8.264;2022-10-17T07:30:20;101138.19;;;13.57;100.00
36328;BME280;22354;50.012;8.264;2022-10-17T07:32:45;101139.69;;;13.78;100.00
36328;BME280;22354;50.012;8.264;2022-10-17T07:35:11;101148.53;;;13.88;100.00
36328;BME280;22354;50.012;8.264;2022-10-17T07:37:37;101148.19;;;13.91;100.00
36328;BME280;22354;50.012;8.264;2022-10-17T07:40:04;101158.41;;;14.05;100.00
36328;BME280;22354;50.012;8.264;2022-10-17T07:42:30;101169.34;;;14.04;100.00
36328;BME280;22354;50.012;8.264;2022-10-17T07:44:55;101169.50;;;14.02;100.00
36328;BME280;22354;50.012;8.264;2022-10-17T07:47:21;101181.72;;;14.14;100.00
36328;BME280;22354;50.012;8.264;2022-10-17T07:49:46;101192.28;;;14.34;100.00
36328;BME280;22354;50.012;8.264;2022-10-17T07:52:13;101201.41;;;14.41;100.00
36328;BME280;22354;50.012;8.264;2022-10-17T07:54:38;101218.72;;;14.56;100.00
36328;BME280;22354;50.012;8.264;2022-10-17T07:57:04;101221.75;;;14.53;100.00
36328;BME280;22354;50.012;8.264;2022-10-17T07:59:29;101226.09;;;14.46;100.00
36328;BME280;22354;50.012;8.264;2022-10-17T08:01:56;101224.63;;;14.34;100.00
36328;BME280;22354;50.012;8.264;2022-10-17T08:04:21;101234.19;;;14.46;100.00
36328;BME280;22354;50.012;8.264;2022-10-17T08:06:48;101231.84;;;14.51;100.00
36328;BME280;22354;50.012;8.264;2022-10-17T08:09:13;101230.50;;;14.55;100.00
36328;BME280;22354;50.012;8.264;2022-10-17T08:11:38;101239.44;;;14.56;100.00
36328;BME280;22354;50.012;8.264;2022-10-17T08:14:03;101243.03;;;14.64;100.00
36328;BME280;22354;50.012;8.264;2022-10-17T08:16:29;101243.13;;;14.81;100.00
36328;BME280;22354;50.012;8.264;2022-10-17T08:18:54;101248.19;;;14.84;100.00
36328;BME280;22354;50.012;8.264;2022-10-17T08:21:19;101256.28;;;14.84;100.00
36328;BME280;22354;50.012;8.264;2022-10-17T08:23:45;101254.41;;;14.76;100.00
36328;BME280;22354;50.012;8.264;2022-10-17T08:26:10;101260.47;;;14.78;100.00
36328;BME280;22354;50.012;8.264;2022-10-17T08:28:38;101260.16;;;14.81;100.00
36328;BME280;22354;50.012;8.264;2022-10-17T08:31:06;101251.03;;;14.82;100.00
36328;BME280;22354;50.012;8.264;2022-10-17T08:33:32;101257.28;;;14.83;100.00
36328;BME280;22354;50.012;8.264;2022-10-17T08:35:59;101264.44;;;14.92;100.00
36328;BME280;22354;50.012;8.264;2022-10-17T08:38:26;101261.09;;;14.98;100.00
36328;BME280;22354;50.012;8.264;2022-10-17T08:40:52;101263.13;;;15.04;100.00
36328;BME280;22354;50.012;8.264;2022-10-17T08:43:30;101258.06;;;15.09;100.00
36328;BME280;22354;50.012;8.264;2022-10-17T08:46:01;101253.75;;;15.16;100.00
36328;BME280;22354;50.012;8.264;2022-10-17T08:48:30;101241.75;;;15.19;100.00
36328;BME280;22354;50.012;8.264;2022-10-17T08:51:05;101253.78;;;15.32;100.00
36328;BME280;22354;50.012;8.264;2022-10-17T08:53:38;101265.81;;;15.46;100.00
36328;BME280;22354;50.012;8.264;2022-10-17T08:56:22;101276.47;;;15.56;100.00
36328;BME280;22354;50.012;8.264;2022-10-17T08:58:48;101278.38;;;15.63;100.00
36328;BME280;22354;50.012;8.264;2022-10-17T09:01:37;101293.25;;;15.68;100.00
36328;BME280;22354;50.012;8.264;2022-10-17T09:07:03;101291.41;;;15.84;100.00
36328;BME280;22354;50.012;8.264;2022-10-17T09:09:49;101300.19;;;15.95;100.00
36328;BME280;22354;50.012;8.264;2022-10-17T09:12:34;101297.84;;;16.08;100.00
36328;BME280;22354;50.012;8.264;2022-10-17T09:15:33;101306.66;;;16.18;100.00
36328;BME280;22354;50.012;8.264;2022-10-17T09:18:27;101310.19;;;16.18;100.00
36328;BME280;22354;50.012;8.264;2022-10-17T09:21:18;101314.75;;;16.34;100.00
36328;BME280;22354;50.012;8.264;2022-10-17T09:23:50;101313.53;;;16.53;100.00
36328;BME280;22354;50.012;8.264;2022-10-17T09:26:17;101316.75;;;16.65;100.00
36328;BME280;22354;50.012;8.264;2022-10-17T09:28:42;101319.31;;;16.58;100.00
36328;BME280;22354;50.012;8.264;2022-10-17T09:31:28;101326.25;;;16.69;100.00
36328;BME280;22354;50.012;8.264;2022-10-17T09:33:56;101332.31;;;16.87;100.00
36328;BME280;22354;50.012;8.264;2022-10-17T09:36:27;101315.03;;;16.96;100.00
36328;BME280;22354;50.012;8.264;2022-10-17T09:38:55;101315.88;;;16.89;100.00
36328;BME280;22354;50.012;8.264;2022-10-17T09:41:31;101325.38;;;16.93;100.00
36328;BME280;22354;50.012;8.264;2022-10-17T09:44:12;101334.75;;;17.21;100.00
36328;BME280;22354;50.012;8.264;2022-10-17T09:46:38;101321.88;;;17.62;100.00
36328;BME280;22354;50.012;8.264;2022-10-17T09:49:11;101317.28;;;17.94;100.00
36328;BME280;22354;50.012;8.264;2022-10-17T09:51:38;101320.00;;;17.71;100.00
36328;BME280;22354;50.012;8.264;2022-10-17T09:54:14;101322.47;;;17.81;100.00
36328;BME280;22354;50.012;8.264;2022-10-17T09:57:02;101314.31;;;17.81;100.00
36328;BME280;22354;50.012;8.264;2022-10-17T09:59:37;101311.00;;;17.71;100.00
36328;BME280;22354;50.012;8.264;2022-10-17T10:02:29;101303.19;;;17.67;100.00
36328;BME280;22354;50.012;8.264;2022-10-17T10:05:16;101309.63;;;17.75;100.00
36328;BME280;22354;50.012;8.264;2022-10-17T10:08:01;101312.28;;;17.83;100.00
36328;BME280;22354;50.012;8.264;2022-10-17T10:10:28;101307.84;;;17.90;100.00
36328;BME280;22354;50.012;8.264;2022-10-17T10:15:33;101311.44;;;18.05;100.00
36328;BME280;22354;50.012;8.264;2022-10-17T10:17:59;101318.88;;;18.11;100.00
36328;BME280;22354;50.012;8.264;2022-10-17T10:20:34;101313.28;;;18.13;100.00
36328;BME280;22354;50.012;8.264;2022-10-17T10:23:16;101318.88;;;18.11;100.00
36328;BME280;22354;50.012;8.264;2022-10-17T10:25:51;101315.78;;;18.14;100.00
36328;BME280;22354;50.012;8.264;2022-10-17T10:28:18;101311.88;;;18.17;100.00
36328;BME280;22354;50.012;8.264;2022-10-17T10:30:49;101312.66;;;18.25;100.00
36328;BME280;22354;50.012;8.264;2022-10-17T10:33:18;101308.69;;;18.36;100.00
36328;BME280;22354;50.012;8.264;2022-10-17T10:35:58;101307.09;;;18.42;100.00
36328;BME280;22354;50.012;8.264;2022-10-17T10:38:27;101299.22;;;18.47;100.00
36328;BME280;22354;50.012;8.264;2022-10-17T10:41:01;101308.91;;;18.49;100.00
36328;BME280;22354;50.012;8.264;2022-10-17T10:43:37;101312.25;;;18.51;100.00
36328;BME280;22354;50.012;8.264;2022-10-17T10:46:16;101312.81;;;18.62;100.00
36328;BME280;22354;50.012;8.264;2022-10-17T10:48:51;101315.88;;;18.67;100.00
36328;BME280;22354;50.012;8.264;2022-10-17T10:51:22;101306.78;;;18.74;100.00
36328;BME280;22354;50.012;8.264;2022-10-17T10:54:10;101299.34;;;18.76;100.00
36328;BME280;22354;50.012;8.264;2022-10-17T10:56:45;101297.09;;;18.95;100.00
36328;BME280;22354;50.012;8.264;2022-10-17T10:59:16;101298.28;;;19.07;100.00
36328;BME280;22354;50.012;8.264;2022-10-17T11:01:50;101291.84;;;19.08;100.00
36328;BME280;22354;50.012;8.264;2022-10-17T11:06:44;101286.66;;;19.13;100.00
36328;BME280;22354;50.012;8.264;2022-10-17T11:12:11;101285.22;;;19.47;100.00
36328;BME280;22354;50.012;8.264;2022-10-17T11:17:28;101298.16;;;19.59;100.00
36328;BME280;22354;50.012;8.264;2022-10-17T11:20:50;101301.88;;;19.73;100.00
36328;BME280;22354;50.012;8.264;2022-10-17T11:22:46;101306.31;;;19.95;100.00
36328;BME280;22354;50.012;8.264;2022-10-17T11:27:52;101313.09;;;20.49;100.00
36328;BME280;22354;50.012;8.264;2022-10-17T11:30:18;101318.72;;;20.26;100.00
36328;BME280;22354;50.012;8.264;2022-10-17T11:32:48;101310.44;;;20.34;100.00
36328;BME280;22354;50.012;8.264;2022-10-17T11:35:22;101320.00;;;20.73;100.00
36328;BME280;22354;50.012;8.264;2022-10-17T11:40:37;101323.28;;;20.68;100.00
36328;BME280;22354;50.012;8.264;2022-10-17T11:45:41;101311.31;;;20.41;100.00
36328;BME280;22354;50.012;8.264;2022-10-17T11:48:20;101317.00;;;20.68;100.00
36328;BME280;22354;50.012;8.264;2022-10-17T11:50:51;101303.56;;;20.59;100.00
36328;BME280;22354;50.012;8.264;2022-10-17T11:53:24;101300.75;;;20.46;100.00
36328;BME280;22354;50.012;8.264;2022-10-17T11:55:52;101304.75;;;20.50;100.00
36328;BME280;22354;50.012;8.264;2022-10-17T11:58:31;101302.81;;;20.72;100.00
36328;BME280;22354;50.012;8.264;2022-10-17T12:01:37;101309.66;;;20.96;100.00
36328;BME280;22354;50.012;8.264;2022-10-17T12:10:06;101324.63;;;21.48;100.00
36328;BME280;22354;50.012;8.264;2022-10-17T12:12:37;101323.66;;;21.69;100.00
36328;BME280;22354;50.012;8.264;2022-10-17T12:17:37;101333.25;;;22.06;100.00
36328;BME280;22354;50.012;8.264;2022-10-17T12:20:38;101324.88;;;22.21;100.00
36328;BME280;22354;50.012;8.264;2022-10-17T12:25:58;101333.91;;;22.21;100.00
36328;BME280;22354;50.012;8.264;2022-10-17T12:28:30;101334.75;;;22.15;100.00
36328;BME280;22354;50.012;8.264;2022-10-17T12:33:51;101337.88;;;22.05;100.00
36328;BME280;22354;50.012;8.264;2022-10-17T12:38:44;101341.66;;;22.11;100.00
36328;BME280;22354;50.012;8.264;2022-10-17T12:41:10;101331.34;;;22.06;100.00
36328;BME280;22354;50.012;8.264;2022-10-17T12:43:43;101338.72;;;22.06;100.00
36328;BME280;22354;50.012;8.264;2022-10-17T12:46:09;101327.56;;;22.01;100.00
36328;BME280;22354;50.012;8.264;2022-10-17T12:51:06;101335.91;;;21.99;100.00
36328;BME280;22354;50.012;8.264;2022-10-17T12:53:48;101329.84;;;22.04;100.00
36328;BME280;22354;50.012;8.264;2022-10-17T12:56:34;101328.00;;;22.11;100.00
36328;BME280;22354;50.012;8.264;2022-10-17T12:59:06;101324.06;;;22.66;100.00
36328;BME280;22354;50.012;8.264;2022-10-17T13:01:33;101333.31;;;22.85;100.00
36328;BME280;22354;50.012;8.264;2022-10-17T13:04:01;101327.41;;;22.69;100.00
36328;BME280;22354;50.012;8.264;2022-10-17T13:06:31;101322.38;;;22.79;100.00
36328;BME280;22354;50.012;8.264;2022-10-17T13:09:08;101335.81;;;23.07;100.00
36328;BME280;22354;50.012;8.264;2022-10-17T13:11:39;101323.00;;;22.61;100.00
36328;BME280;22354;50.012;8.264;2022-10-17T13:14:11;101317.97;;;22.31;100.00
36328;BME280;22354;50.012;8.264;2022-10-17T13:16:59;101328.63;;;23.19;100.00
36328;BME280;22354;50.012;8.264;2022-10-17T13:19:29;101340.63;;;23.76;100.00
36328;BME280;22354;50.012;8.264;2022-10-17T13:22:00;101340.03;;;24.05;100.00
36328;BME280;22354;50.012;8.264;2022-10-17T13:24:31;101347.03;;;24.83;100.00
36328;BME280;22354;50.012;8.264;2022-10-17T13:26:58;101345.81;;;24.79;100.00
36328;BME280;22354;50.012;8.264;2022-10-17T13:29:24;101339.22;;;24.36;100.00
36328;BME280;22354;50.012;8.264;2022-10-17T13:31:55;101337.50;;;24.04;100.00
36328;BME280;22354;50.012;8.264;2022-10-17T13:34:24;101342.97;;;24.10;100.00
36328;BME280;22354;50.012;8.264;2022-10-17T13:36:56;101348.59;;;23.84;100.00
36328;BME280;22354;50.012;8.264;2022-10-17T13:39:24;101343.81;;;24.04;100.00
36328;BME280;22354;50.012;8.264;2022-10-17T13:41:51;101348.09;;;23.94;100.00
36328;BME280;22354;50.012;8.264;2022-10-17T13:44:19;101349.31;;;23.60;100.00
36328;BME280;22354;50.012;8.264;2022-10-17T13:46:45;101352.78;;;23.87;100.00
36328;BME280;22354;50.012;8.264;2022-10-17T13:49:18;101352.41;;;23.76;100.00
36328;BME280;22354;50.012;8.264;2022-10-17T13:51:46;101357.13;;;23.49;100.00
36328;BME280;22354;50.012;8.264;2022-10-17T13:54:32;101368.97;;;23.17;100.00